createdAt,value
2022-10-20T03:34:12.795Z,98243.52
2022-10-20T03:39:14.573Z,98243.52
2022-10-20T03:44:16.288Z,98240.58
2022-10-20T03:49:18.134Z,98240.58
2022-10-20T03:54:19.959Z,98244.43
2022-10-20T03:59:28.141Z,98244.43
2022-10-20T04:04:32.230Z,98241.25
2022-10-20T04:09:33.942Z,98239.88
2022-10-20T04:14:35.626Z,98239.88
2022-10-20T04:19:37.457Z,98243.3
2022-10-20T04:24:39.228Z,98243.3
2022-10-20T04:29:40.974Z,98242.66
2022-10-20T04:34:42.730Z,98242.66
2022-10-20T04:39:44.487Z,98242.41
2022-10-20T04:44:46.444Z,98242.41
2022-10-20T04:49:48.398Z,98241.12
2022-10-20T04:54:50.182Z,98241.12
2022-10-20T04:59:52.315Z,98236.88
2022-10-20T05:04:54.060Z,98236.88
2022-10-20T05:09:56.129Z,98248.56
2022-10-20T05:14:57.925Z,98248.56
2022-10-20T05:19:59.899Z,98259.49
2022-10-20T05:30:07.992Z,98263.34
2022-10-20T05:35:09.836Z,98275.27
2022-10-20T05:40:12.115Z,98275.27
2022-10-20T05:45:14.234Z,98284.3
2022-10-20T05:50:16.014Z,98284.3
2022-10-20T05:55:18.063Z,98291.33
2022-10-20T06:00:20.052Z,98291.33
2022-10-20T06:05:22.150Z,98301.63
2022-10-20T06:10:24.140Z,98301.63
2022-10-20T06:15:26.313Z,98315.3
2022-10-20T06:20:28.163Z,98315.3
2022-10-20T06:25:29.978Z,98326.38
2022-10-20T06:30:31.627Z,98326.38
2022-10-20T06:35:33.319Z,98338.8
2022-10-20T06:40:34.994Z,98346.63
2022-10-20T06:45:36.754Z,98346.63
2022-10-20T06:50:38.454Z,98345.56
2022-10-20T06:55:40.245Z,98345.56
2022-10-20T07:00:42.066Z,98356.64
2022-10-20T07:05:44.081Z,98356.64
2022-10-20T07:10:45.977Z,98362.69
2022-10-20T07:15:47.726Z,98362.69
2022-10-20T07:20:49.703Z,98365.47
2022-10-20T07:25:51.433Z,98365.47
2022-10-20T07:30:53.442Z,98368.92
2022-10-20T07:35:55.140Z,98368.92
2022-10-20T07:41:02.227Z,98365.89
2022-10-20T07:46:04.094Z,98365.89
2022-10-20T07:56:16.671Z,98371.08
2022-10-20T08:01:18.883Z,98371.08
2022-10-20T08:06:20.617Z,98376.81
2022-10-20T08:11:23.104Z,98376.81
2022-10-20T08:16:29.421Z,98378.59
2022-10-20T08:21:31.777Z,98378.59
2022-10-20T08:26:33.543Z,98378.47
2022-10-20T08:31:35.763Z,98378.47
2022-10-20T08:36:37.514Z,98386.39
2022-10-20T08:46:47.771Z,98383.98
2022-10-20T08:51:49.555Z,98383.98
2022-10-20T08:56:52.263Z,98387.63
2022-10-20T09:01:54.850Z,98387.63
2022-10-20T09:06:58.992Z,98392.37
2022-10-20T09:12:03.651Z,98385.2
2022-10-20T09:22:13.265Z,98389.13
2022-10-20T09:27:17.588Z,98389.13
2022-10-20T09:37:27.187Z,98393.6
2022-10-20T09:42:30.629Z,98390.98
2022-10-20T09:47:33.383Z,98390.98
2022-10-20T09:52:37.819Z,98385.31
2022-10-20T09:57:40.499Z,98385.31
2022-10-20T10:02:42.273Z,98386.98
2022-10-20T10:07:44.300Z,98386.98
2022-10-20T10:12:50.907Z,98377.03
2022-10-20T10:17:53.423Z,98377.03
2022-10-20T10:28:01.263Z,98375.49
2022-10-20T10:38:10.722Z,98353.51
2022-10-20T10:48:32.908Z,98343.8
2022-10-20T10:53:42.527Z,98343.8
2022-10-20T10:58:46.712Z,98326.67
2022-10-20T11:03:56.613Z,98326.67
2022-10-20T11:09:05.555Z,98323.64
2022-10-20T11:14:13.414Z,98323.64
2022-10-20T11:19:23.343Z,98309.22
2022-10-20T11:29:39.902Z,98301.66
2022-10-20T11:34:47.436Z,98288.79
2022-10-20T11:39:52.170Z,98288.79
2022-10-20T11:44:54.594Z,98271.63
2022-10-20T11:49:56.420Z,98271.63
2022-10-20T11:55:04.700Z,98269.86
2022-10-20T12:05:24.234Z,98268.61
2022-10-20T12:10:32.677Z,98268.61
2022-10-20T12:25:46.675Z,98258.3
2022-10-20T12:30:53.601Z,98246.19
2022-10-20T12:35:57.845Z,98246.19
2022-10-20T12:41:00.252Z,98237.41
2022-10-20T12:46:06.782Z,98237.41
2022-10-20T13:01:19.650Z,98215.25
2022-10-20T13:16:40.317Z,98215.19
2022-10-20T13:21:50.060Z,98194.77
2022-10-20T13:26:52.858Z,98196.66
2022-10-20T13:32:05.172Z,98196.66
2022-10-20T13:37:14.011Z,98204.42
2022-10-20T13:42:24.025Z,98204.42
2022-10-20T13:52:39.629Z,98200.66
2022-10-20T13:57:49.118Z,98198.86
2022-10-20T14:02:58.728Z,98198.86
2022-10-20T14:08:07.492Z,98187.23
2022-10-20T14:13:13.180Z,98187.23
2022-10-20T14:18:21.133Z,98178.81
2022-10-20T14:23:24.140Z,98181.94
2022-10-20T14:28:28.090Z,98181.94
2022-10-20T14:33:30.266Z,98183.81
2022-10-20T14:38:33.990Z,98183.81
2022-10-20T14:43:36.964Z,98182.61
2022-10-20T14:48:41.449Z,98182.61
2022-10-20T14:53:43.496Z,98183.73
2022-10-20T15:09:01.838Z,98168.6
2022-10-20T15:14:03.788Z,98175.88
2022-10-20T15:19:11.215Z,98175.88
2022-10-20T15:24:13.127Z,98176.48
2022-10-20T15:29:15.389Z,98165.27
2022-10-20T15:34:17.213Z,98165.27
2022-10-20T15:39:19.107Z,98163.29
2022-10-20T15:44:21.788Z,98163.29
2022-10-20T15:49:23.648Z,98168.58
2022-10-20T15:54:26.127Z,98168.58
2022-10-20T15:59:28.488Z,98166.19
2022-10-20T16:04:30.478Z,98166.19
2022-10-20T16:09:32.364Z,98172.16
2022-10-20T16:14:34.509Z,98172.16
2022-10-20T16:19:36.544Z,98182.94
2022-10-20T16:24:38.736Z,98182.94
2022-10-20T16:29:40.926Z,98185.84
2022-10-20T16:34:47.094Z,98189.2
2022-10-20T16:39:48.938Z,98189.2
2022-10-20T16:44:51.747Z,98190.5
2022-10-20T16:49:53.755Z,98190.5
2022-10-20T16:54:55.775Z,98196.66
2022-10-20T16:59:57.853Z,98196.66
2022-10-20T17:05:09.077Z,98196.34
2022-10-20T17:10:12.654Z,98196.34
2022-10-20T17:15:15.348Z,98191.05
2022-10-20T17:20:17.925Z,98191.05
2022-10-20T17:25:22.578Z,98202.54
2022-10-20T17:30:26.317Z,98202.54
2022-10-20T17:35:29.881Z,98208.45
2022-10-20T17:40:37.467Z,98212.09
2022-10-20T17:45:40.395Z,98212.09
2022-10-20T17:50:44.272Z,98219.05
2022-10-20T17:55:47.779Z,98219.05
2022-10-20T18:05:56.696Z,98215.07
2022-10-20T18:10:59.710Z,98199.5
2022-10-20T18:16:04.939Z,98199.5
2022-10-20T18:21:09.417Z,98198.99
2022-10-20T18:26:13.376Z,98198.99
2022-10-20T18:31:18.414Z,98196.4
2022-10-20T18:36:21.204Z,98196.4
2022-10-20T18:41:25.283Z,98201.2
2022-10-20T18:46:28.790Z,98192.86
2022-10-20T18:51:32.584Z,98192.86
2022-10-20T18:56:37.256Z,98188.53
2022-10-20T19:01:40.955Z,98188.53
2022-10-20T19:06:44.672Z,98197.05
2022-10-20T19:11:51.665Z,98197.05
2022-10-20T19:16:55.144Z,98183.8
2022-10-20T19:21:58.216Z,98183.8
2022-10-20T19:32:07.282Z,98189.24
2022-10-20T19:37:10.474Z,98187.49
2022-10-20T19:42:13.615Z,98187.49
2022-10-20T19:47:17.910Z,98191.41
2022-10-20T19:52:20.745Z,98197.58
2022-10-20T19:57:23.830Z,98197.58
2022-10-20T20:02:28.274Z,98179.45
2022-10-20T20:07:31.114Z,98179.45
2022-10-20T20:12:38.055Z,98190.63
2022-10-20T20:17:41.729Z,98190.63
2022-10-20T20:22:44.801Z,98182.83
2022-10-20T20:27:47.317Z,98182.83
2022-10-20T20:32:54.995Z,98181.47
2022-10-20T20:37:57.172Z,98181.47
2022-10-20T20:42:59.284Z,98181.34
2022-10-20T20:48:01.061Z,98181.34
2022-10-20T20:53:03.157Z,98181.34
2022-10-20T20:58:04.946Z,98181.34
2022-10-20T21:03:06.657Z,98181.34
2022-10-20T21:08:08.715Z,98181.34
2022-10-20T21:13:10.529Z,98181.34
2022-10-20T21:18:12.297Z,98181.34
2022-10-20T21:23:14.081Z,98181.34
2022-10-20T21:28:15.785Z,98181.34
2022-10-20T21:33:17.585Z,98181.34
2022-10-20T21:38:19.243Z,98181.34
